sensor_id;sensor_type;location;lat;lon;timestamp;temperature;humidity
14873;DHT22;7528;48.576;19.122;2022-10-22T00:03:12;13.50;66.00
14873;DHT22;7528;48.576;19.122;2022-10-22T00:08:14;13.50;65.60
14873;DHT22;7528;48.576;19.122;2022-10-22T00:13:17;13.50;65.40
14873;DHT22;7528;48.576;19.122;2022-10-22T00:18:21;13.40;65.30
14873;DHT22;7528;48.576;19.122;2022-10-22T00:23:24;13.30;65.80
14873;DHT22;7528;48.576;19.122;2022-10-22T00:28:26;13.20;65.80
14873;DHT22;7528;48.576;19.122;2022-10-22T00:33:30;13.30;66.60
14873;DHT22;7528;48.576;19.122;2022-10-22T00:38:33;13.30;66.10
14873;DHT22;7528;48.576;19.122;2022-10-22T00:43:54;13.30;66.30
14873;DHT22;7528;48.576;19.122;2022-10-22T00:49:00;13.20;65.90
14873;DHT22;7528;48.576;19.122;2022-10-22T00:54:06;13.10;66.40
14873;DHT22;7528;48.576;19.122;2022-10-22T00:59:11;13.00;66.60
14873;DHT22;7528;48.576;19.122;2022-10-22T01:04:17;12.90;66.70
14873;DHT22;7528;48.576;19.122;2022-10-22T01:09:24;12.90;66.90
14873;DHT22;7528;48.576;19.122;2022-10-22T01:14:34;12.80;67.00
14873;DHT22;7528;48.576;19.122;2022-10-22T01:19:53;12.80;66.80
14873;DHT22;7528;48.576;19.122;2022-10-22T01:25:06;12.80;67.20
14873;DHT22;7528;48.576;19.122;2022-10-22T01:30:12;12.80;66.90
14873;DHT22;7528;48.576;19.122;2022-10-22T01:35:18;12.70;67.00
14873;DHT22;7528;48.576;19.122;2022-10-22T01:40:22;12.70;67.10
14873;DHT22;7528;48.576;19.122;2022-10-22T01:45:28;12.60;67.40
14873;DHT22;7528;48.576;19.122;2022-10-22T01:50:52;12.50;68.00
14873;DHT22;7528;48.576;19.122;2022-10-22T01:56:17;12.50;68.30
14873;DHT22;7528;48.576;19.122;2022-10-22T02:01:30;12.50;68.10
14873;DHT22;7528;48.576;19.122;2022-10-22T02:06:35;12.50;68.30
14873;DHT22;7528;48.576;19.122;2022-10-22T02:11:41;12.40;68.40
14873;DHT22;7528;48.576;19.122;2022-10-22T02:16:47;12.50;68.10
14873;DHT22;7528;48.576;19.122;2022-10-22T02:21:50;12.40;68.20
14873;DHT22;7528;48.576;19.122;2022-10-22T02:27:00;12.30;68.00
14873;DHT22;7528;48.576;19.122;2022-10-22T02:32:08;12.30;68.70
14873;DHT22;7528;48.576;19.122;2022-10-22T02:37:13;12.30;69.30
14873;DHT22;7528;48.576;19.122;2022-10-22T02:42:16;12.20;68.80
14873;DHT22;7528;48.576;19.122;2022-10-22T02:47:20;12.20;68.70
14873;DHT22;7528;48.576;19.122;2022-10-22T02:52:22;12.20;68.60
14873;DHT22;7528;48.576;19.122;2022-10-22T02:57:25;12.10;68.60
14873;DHT22;7528;48.576;19.122;2022-10-22T03:02:28;12.10;69.00
14873;DHT22;7528;48.576;19.122;2022-10-22T03:07:31;12.10;69.10
14873;DHT22;7528;48.576;19.122;2022-10-22T03:12:34;12.10;69.30
14873;DHT22;7528;48.576;19.122;2022-10-22T03:17:38;12.10;69.50
14873;DHT22;7528;48.576;19.122;2022-10-22T03:22:41;12.10;69.70
14873;DHT22;7528;48.576;19.122;2022-10-22T03:27:44;12.20;69.60
14873;DHT22;7528;48.576;19.122;2022-10-22T03:32:48;12.10;69.50
14873;DHT22;7528;48.576;19.122;2022-10-22T03:37:51;12.00;69.50
14873;DHT22;7528;48.576;19.122;2022-10-22T03:42:53;11.90;69.40
14873;DHT22;7528;48.576;19.122;2022-10-22T03:47:57;11.80;69.50
14873;DHT22;7528;48.576;19.122;2022-10-22T03:53:00;11.70;69.30
14873;DHT22;7528;48.576;19.122;2022-10-22T03:58:02;11.60;69.40
14873;DHT22;7528;48.576;19.122;2022-10-22T04:03:06;11.60;69.30
14873;DHT22;7528;48.576;19.122;2022-10-22T04:08:09;11.60;69.00
14873;DHT22;7528;48.576;19.122;2022-10-22T04:13:11;11.50;68.80
14873;DHT22;7528;48.576;19.122;2022-10-22T04:18:15;11.40;69.00
14873;DHT22;7528;48.576;19.122;2022-10-22T04:23:18;11.50;68.80
14873;DHT22;7528;48.576;19.122;2022-10-22T04:28:20;11.40;69.00
14873;DHT22;7528;48.576;19.122;2022-10-22T04:33:25;11.40;68.90
14873;DHT22;7528;48.576;19.122;2022-10-22T04:38:27;11.40;68.80
14873;DHT22;7528;48.576;19.122;2022-10-22T04:43:30;11.30;68.60
14873;DHT22;7528;48.576;19.122;2022-10-22T04:48:34;11.20;68.40
14873;DHT22;7528;48.576;19.122;2022-10-22T04:53:36;11.20;68.70
14873;DHT22;7528;48.576;19.122;2022-10-22T04:58:41;11.10;68.60
14873;DHT22;7528;48.576;19.122;2022-10-22T05:03:45;11.10;68.80
14873;DHT22;7528;48.576;19.122;2022-10-22T05:08:52;11.00;68.90
14873;DHT22;7528;48.576;19.122;2022-10-22T05:13:55;11.00;68.90
14873;DHT22;7528;48.576;19.122;2022-10-22T05:19:01;11.00;68.80
14873;DHT22;7528;48.576;19.122;2022-10-22T05:24:04;10.90;68.80
14873;DHT22;7528;48.576;19.122;2022-10-22T05:29:06;10.90;69.10
14873;DHT22;7528;48.576;19.122;2022-10-22T05:34:10;10.90;69.10
14873;DHT22;7528;48.576;19.122;2022-10-22T05:39:13;10.90;69.20
14873;DHT22;7528;48.576;19.122;2022-10-22T05:44:15;10.90;69.10
14873;DHT22;7528;48.576;19.122;2022-10-22T05:49:19;10.90;68.80
14873;DHT22;7528;48.576;19.122;2022-10-22T05:54:22;10.90;69.00
14873;DHT22;7528;48.576;19.122;2022-10-22T05:59:24;11.00;69.20
14873;DHT22;7528;48.576;19.122;2022-10-22T06:04:28;11.00;69.30
14873;DHT22;7528;48.576;19.122;2022-10-22T06:09:33;11.20;69.80
14873;DHT22;7528;48.576;19.122;2022-10-22T06:14:36;11.30;69.40
14873;DHT22;7528;48.576;19.122;2022-10-22T06:19:40;11.40;68.90
14873;DHT22;7528;48.576;19.122;2022-10-22T06:24:43;11.40;68.90
14873;DHT22;7528;48.576;19.122;2022-10-22T06:29:46;11.50;68.90
14873;DHT22;7528;48.576;19.122;2022-10-22T06:34:50;11.60;68.80
14873;DHT22;7528;48.576;19.122;2022-10-22T06:39:52;11.70;69.00
14873;DHT22;7528;48.576;19.122;2022-10-22T06:44:55;11.80;69.10
14873;DHT22;7528;48.576;19.122;2022-10-22T06:49:59;11.80;68.70
14873;DHT22;7528;48.576;19.122;2022-10-22T06:55:01;11.90;68.80
14873;DHT22;7528;48.576;19.122;2022-10-22T07:00:04;12.00;68.80
14873;DHT22;7528;48.576;19.122;2022-10-22T07:05:09;12.20;68.40
14873;DHT22;7528;48.576;19.122;2022-10-22T07:10:11;12.80;68.00
14873;DHT22;7528;48.576;19.122;2022-10-22T07:15:14;13.80;64.30
14873;DHT22;7528;48.576;19.122;2022-10-22T07:20:18;14.20;61.90
14873;DHT22;7528;48.576;19.122;2022-10-22T07:25:21;14.40;60.20
14873;DHT22;7528;48.576;19.122;2022-10-22T07:30:24;14.40;59.80
14873;DHT22;7528;48.576;19.122;2022-10-22T07:35:27;14.20;60.80
14873;DHT22;7528;48.576;19.122;2022-10-22T07:40:30;14.20;61.30
14873;DHT22;7528;48.576;19.122;2022-10-22T07:45:32;14.10;61.40
14873;DHT22;7528;48.576;19.122;2022-10-22T07:50:36;14.10;62.50
14873;DHT22;7528;48.576;19.122;2022-10-22T07:55:38;14.20;62.40
14873;DHT22;7528;48.576;19.122;2022-10-22T08:00:41;14.40;62.00
14873;DHT22;7528;48.576;19.122;2022-10-22T08:05:45;14.90;61.00
14873;DHT22;7528;48.576;19.122;2022-10-22T08:10:50;15.20;58.50
14873;DHT22;7528;48.576;19.122;2022-10-22T08:15:53;15.10;59.70
14873;DHT22;7528;48.576;19.122;2022-10-22T08:20:57;15.20;59.90
14873;DHT22;7528;48.576;19.122;2022-10-22T08:26:00;16.00;59.40
14873;DHT22;7528;48.576;19.122;2022-10-22T08:31:03;16.80;57.20
14873;DHT22;7528;48.576;19.122;2022-10-22T08:36:07;17.10;56.50
14873;DHT22;7528;48.576;19.122;2022-10-22T08:41:13;17.30;54.40
14873;DHT22;7528;48.576;19.122;2022-10-22T08:46:26;17.40;53.70
14873;DHT22;7528;48.576;19.122;2022-10-22T08:51:35;17.60;53.40
14873;DHT22;7528;48.576;19.122;2022-10-22T08:56:43;18.10;53.10
14873;DHT22;7528;48.576;19.122;2022-10-22T09:01:47;18.90;51.00
14873;DHT22;7528;48.576;19.122;2022-10-22T09:06:54;19.70;50.10
14873;DHT22;7528;48.576;19.122;2022-10-22T09:11:59;21.30;46.40
14873;DHT22;7528;48.576;19.122;2022-10-22T09:17:11;22.40;43.70
14873;DHT22;7528;48.576;19.122;2022-10-22T09:22:24;22.60;42.90
14873;DHT22;7528;48.576;19.122;2022-10-22T09:27:30;23.60;40.30
14873;DHT22;7528;48.576;19.122;2022-10-22T09:32:32;23.70;39.90
14873;DHT22;7528;48.576;19.122;2022-10-22T09:37:47;22.80;40.40
14873;DHT22;7528;48.576;19.122;2022-10-22T09:42:49;22.20;43.10
14873;DHT22;7528;48.576;19.122;2022-10-22T09:48:07;21.60;43.10
14873;DHT22;7528;48.576;19.122;2022-10-22T09:53:16;20.90;44.50
14873;DHT22;7528;48.576;19.122;2022-10-22T09:58:20;20.60;45.30
14873;DHT22;7528;48.576;19.122;2022-10-22T10:03:24;20.40;45.70
14873;DHT22;7528;48.576;19.122;2022-10-22T10:08:29;20.50;45.20
14873;DHT22;7528;48.576;19.122;2022-10-22T10:13:43;20.50;43.80
14873;DHT22;7528;48.576;19.122;2022-10-22T10:18:59;20.50;45.50
14873;DHT22;7528;48.576;19.122;2022-10-22T10:24:14;20.50;46.30
14873;DHT22;7528;48.576;19.122;2022-10-22T10:29:26;20.40;45.40
14873;DHT22;7528;48.576;19.122;2022-10-22T10:34:39;20.30;44.80
14873;DHT22;7528;48.576;19.122;2022-10-22T10:40:01;20.50;45.90
14873;DHT22;7528;48.576;19.122;2022-10-22T10:45:15;20.50;45.30
14873;DHT22;7528;48.576;19.122;2022-10-22T10:50:22;20.70;45.40
14873;DHT22;7528;48.576;19.122;2022-10-22T10:55:30;20.80;45.10
14873;DHT22;7528;48.576;19.122;2022-10-22T11:00:38;20.80;44.90
14873;DHT22;7528;48.576;19.122;2022-10-22T11:05:44;20.80;44.60
14873;DHT22;7528;48.576;19.122;2022-10-22T11:10:53;20.70;44.90
14873;DHT22;7528;48.576;19.122;2022-10-22T11:16:00;20.50;45.70
14873;DHT22;7528;48.576;19.122;2022-10-22T11:21:14;20.50;45.20
14873;DHT22;7528;48.576;19.122;2022-10-22T11:26:36;20.20;46.10
14873;DHT22;7528;48.576;19.122;2022-10-22T11:31:40;20.10;45.60
14873;DHT22;7528;48.576;19.122;2022-10-22T11:36:45;19.80;46.00
14873;DHT22;7528;48.576;19.122;2022-10-22T11:41:52;19.70;45.90
14873;DHT22;7528;48.576;19.122;2022-10-22T11:46:56;19.70;45.80
14873;DHT22;7528;48.576;19.122;2022-10-22T11:52:21;19.50;47.00
14873;DHT22;7528;48.576;19.122;2022-10-22T11:57:28;19.50;47.70
14873;DHT22;7528;48.576;19.122;2022-10-22T12:02:39;19.60;48.00
14873;DHT22;7528;48.576;19.122;2022-10-22T12:07:52;19.60;48.70
14873;DHT22;7528;48.576;19.122;2022-10-22T12:13:18;19.40;53.70
14873;DHT22;7528;48.576;19.122;2022-10-22T12:18:24;19.30;55.60
14873;DHT22;7528;48.576;19.122;2022-10-22T12:23:32;19.30;55.90
14873;DHT22;7528;48.576;19.122;2022-10-22T12:28:40;19.20;56.70
14873;DHT22;7528;48.576;19.122;2022-10-22T12:33:42;19.10;59.00
14873;DHT22;7528;48.576;19.122;2022-10-22T12:38:45;19.00;59.30
14873;DHT22;7528;48.576;19.122;2022-10-22T12:43:57;18.90;59.50
14873;DHT22;7528;48.576;19.122;2022-10-22T12:49:02;18.80;60.30
14873;DHT22;7528;48.576;19.122;2022-10-22T12:54:08;18.60;60.70
14873;DHT22;7528;48.576;19.122;2022-10-22T12:59:17;18.50;61.70
14873;DHT22;7528;48.576;19.122;2022-10-22T13:04:34;18.50;61.40
14873;DHT22;7528;48.576;19.122;2022-10-22T13:09:38;18.30;61.70
14873;DHT22;7528;48.576;19.122;2022-10-22T13:14:43;18.10;63.00
14873;DHT22;7528;48.576;19.122;2022-10-22T13:19:49;18.00;64.40
14873;DHT22;7528;48.576;19.122;2022-10-22T13:25:20;17.90;64.10
14873;DHT22;7528;48.576;19.122;2022-10-22T13:30:26;17.90;64.90
14873;DHT22;7528;48.576;19.122;2022-10-22T13:35:30;17.90;65.10
14873;DHT22;7528;48.576;19.122;2022-10-22T13:40:33;17.90;66.60
14873;DHT22;7528;48.576;19.122;2022-10-22T13:45:37;17.80;66.60
14873;DHT22;7528;48.576;19.122;2022-10-22T13:50:40;17.60;66.90
14873;DHT22;7528;48.576;19.122;2022-10-22T13:55:43;17.40;67.20
14873;DHT22;7528;48.576;19.122;2022-10-22T14:00:50;17.50;67.40
14873;DHT22;7528;48.576;19.122;2022-10-22T14:05:54;17.40;68.20
14873;DHT22;7528;48.576;19.122;2022-10-22T14:10:57;17.30;68.00
14873;DHT22;7528;48.576;19.122;2022-10-22T14:16:00;17.30;68.80
14873;DHT22;7528;48.576;19.122;2022-10-22T14:21:05;17.30;69.60
14873;DHT22;7528;48.576;19.122;2022-10-22T14:26:15;17.30;69.70
14873;DHT22;7528;48.576;19.122;2022-10-22T14:31:22;17.40;69.50
14873;DHT22;7528;48.576;19.122;2022-10-22T14:36:25;17.30;69.60
14873;DHT22;7528;48.576;19.122;2022-10-22T14:41:28;17.30;69.70
14873;DHT22;7528;48.576;19.122;2022-10-22T14:46:32;17.20;69.80
14873;DHT22;7528;48.576;19.122;2022-10-22T14:51:34;17.10;70.30
14873;DHT22;7528;48.576;19.122;2022-10-22T14:56:37;17.10;70.40
14873;DHT22;7528;48.576;19.122;2022-10-22T15:01:41;17.00;70.70
14873;DHT22;7528;48.576;19.122;2022-10-22T15:06:43;17.00;70.70
14873;DHT22;7528;48.576;19.122;2022-10-22T15:11:46;16.90;70.40
14873;DHT22;7528;48.576;19.122;2022-10-22T15:16:50;16.90;71.10
14873;DHT22;7528;48.576;19.122;2022-10-22T15:21:52;17.00;71.20
14873;DHT22;7528;48.576;19.122;2022-10-22T15:26:54;16.70;71.40
14873;DHT22;7528;48.576;19.122;2022-10-22T15:31:58;16.60;71.90
14873;DHT22;7528;48.576;19.122;2022-10-22T15:37:03;16.60;71.90
14873;DHT22;7528;48.576;19.122;2022-10-22T15:42:06;16.60;71.80
14873;DHT22;7528;48.576;19.122;2022-10-22T15:47:10;16.60;72.70
14873;DHT22;7528;48.576;19.122;2022-10-22T15:52:13;16.70;71.70
14873;DHT22;7528;48.576;19.122;2022-10-22T15:57:16;16.60;71.50
14873;DHT22;7528;48.576;19.122;2022-10-22T16:02:20;16.60;72.20
14873;DHT22;7528;48.576;19.122;2022-10-22T16:07:22;16.50;73.00
14873;DHT22;7528;48.576;19.122;2022-10-22T16:12:24;16.50;73.20
14873;DHT22;7528;48.576;19.122;2022-10-22T16:17:28;16.40;73.20
14873;DHT22;7528;48.576;19.122;2022-10-22T16:22:31;16.40;73.80
14873;DHT22;7528;48.576;19.122;2022-10-22T16:27:34;16.30;74.00
14873;DHT22;7528;48.576;19.122;2022-10-22T16:32:39;16.30;73.70
14873;DHT22;7528;48.576;19.122;2022-10-22T16:37:41;16.40;73.90
14873;DHT22;7528;48.576;19.122;2022-10-22T16:42:44;16.40;73.80
14873;DHT22;7528;48.576;19.122;2022-10-22T16:47:49;16.40;74.30
14873;DHT22;7528;48.576;19.122;2022-10-22T16:52:52;16.20;74.80
14873;DHT22;7528;48.576;19.122;2022-10-22T16:57:54;16.20;74.20
14873;DHT22;7528;48.576;19.122;2022-10-22T17:02:58;16.20;74.30
14873;DHT22;7528;48.576;19.122;2022-10-22T17:08:01;16.20;73.90
14873;DHT22;7528;48.576;19.122;2022-10-22T17:13:04;16.20;74.70
14873;DHT22;7528;48.576;19.122;2022-10-22T17:18:08;16.10;75.20
14873;DHT22;7528;48.576;19.122;2022-10-22T17:23:10;16.10;75.30
14873;DHT22;7528;48.576;19.122;2022-10-22T17:28:14;16.20;75.10
14873;DHT22;7528;48.576;19.122;2022-10-22T17:33:17;16.20;75.10
14873;DHT22;7528;48.576;19.122;2022-10-22T17:38:20;16.00;75.80
14873;DHT22;7528;48.576;19.122;2022-10-22T17:43:22;16.00;75.60
14873;DHT22;7528;48.576;19.122;2022-10-22T17:48:26;16.00;76.10
14873;DHT22;7528;48.576;19.122;2022-10-22T17:53:29;16.00;75.90
14873;DHT22;7528;48.576;19.122;2022-10-22T17:58:31;16.00;76.30
14873;DHT22;7528;48.576;19.122;2022-10-22T18:03:36;16.00;76.10
14873;DHT22;7528;48.576;19.122;2022-10-22T18:08:38;16.00;76.30
14873;DHT22;7528;48.576;19.122;2022-10-22T18:13:42;15.90;76.30
14873;DHT22;7528;48.576;19.122;2022-10-22T18:18:46;15.80;76.70
14873;DHT22;7528;48.576;19.122;2022-10-22T18:23:49;15.70;76.80
14873;DHT22;7528;48.576;19.122;2022-10-22T18:28:51;15.70;77.20
14873;DHT22;7528;48.576;19.122;2022-10-22T18:33:55;15.60;77.10
14873;DHT22;7528;48.576;19.122;2022-10-22T18:38:59;15.60;77.70
14873;DHT22;7528;48.576;19.122;2022-10-22T18:44:04;15.50;77.70
14873;DHT22;7528;48.576;19.122;2022-10-22T18:49:13;15.40;78.10
14873;DHT22;7528;48.576;19.122;2022-10-22T18:54:19;15.50;78.20
14873;DHT22;7528;48.576;19.122;2022-10-22T18:59:23;15.50;78.20
14873;DHT22;7528;48.576;19.122;2022-10-22T19:04:29;15.40;78.40
14873;DHT22;7528;48.576;19.122;2022-10-22T19:09:36;15.30;78.80
14873;DHT22;7528;48.576;19.122;2022-10-22T19:14:40;15.30;77.50
14873;DHT22;7528;48.576;19.122;2022-10-22T19:19:45;15.30;77.10
14873;DHT22;7528;48.576;19.122;2022-10-22T19:24:48;15.30;76.90
14873;DHT22;7528;48.576;19.122;2022-10-22T19:29:50;15.30;77.20
14873;DHT22;7528;48.576;19.122;2022-10-22T19:34:54;15.30;76.70
14873;DHT22;7528;48.576;19.122;2022-10-22T19:39:58;15.40;76.50
14873;DHT22;7528;48.576;19.122;2022-10-22T19:45:01;15.20;76.10
14873;DHT22;7528;48.576;19.122;2022-10-22T19:50:05;15.10;76.00
14873;DHT22;7528;48.576;19.122;2022-10-22T19:55:09;15.00;76.80
14873;DHT22;7528;48.576;19.122;2022-10-22T20:00:12;14.90;77.60
14873;DHT22;7528;48.576;19.122;2022-10-22T20:05:17;14.90;77.60
14873;DHT22;7528;48.576;19.122;2022-10-22T20:10:20;14.90;77.70
14873;DHT22;7528;48.576;19.122;2022-10-22T20:15:24;14.90;78.10
14873;DHT22;7528;48.576;19.122;2022-10-22T20:20:28;15.00;78.70
14873;DHT22;7528;48.576;19.122;2022-10-22T20:25:32;15.10;78.90
14873;DHT22;7528;48.576;19.122;2022-10-22T20:30:39;15.10;79.50
14873;DHT22;7528;48.576;19.122;2022-10-22T20:35:42;15.00;79.60
14873;DHT22;7528;48.576;19.122;2022-10-22T20:37:25;15.10;79.90
14873;DHT22;7528;48.576;19.122;2022-10-22T20:39:10;15.10;79.80
14873;DHT22;7528;48.576;19.122;2022-10-22T20:41:01;15.10;80.10
14873;DHT22;7528;48.576;19.122;2022-10-22T20:42:43;15.00;80.70
14873;DHT22;7528;48.576;19.122;2022-10-22T20:44:27;15.10;80.80
14873;DHT22;7528;48.576;19.122;2022-10-22T20:49:45;15.10;80.80
14873;DHT22;7528;48.576;19.122;2022-10-22T20:54:48;15.10;80.60
14873;DHT22;7528;48.576;19.122;2022-10-22T20:59:51;15.10;80.80
14873;DHT22;7528;48.576;19.122;2022-10-22T21:04:56;15.10;80.50
14873;DHT22;7528;48.576;19.122;2022-10-22T21:09:59;15.10;80.40
14873;DHT22;7528;48.576;19.122;2022-10-22T21:15:01;15.00;80.50
14873;DHT22;7528;48.576;19.122;2022-10-22T21:20:06;15.00;80.60
14873;DHT22;7528;48.576;19.122;2022-10-22T21:25:09;15.00;80.00
14873;DHT22;7528;48.576;19.122;2022-10-22T21:30:12;15.00;80.10
14873;DHT22;7528;48.576;19.122;2022-10-22T21:35:16;15.00;80.80
14873;DHT22;7528;48.576;19.122;2022-10-22T21:40:19;15.00;80.90
14873;DHT22;7528;48.576;19.122;2022-10-22T21:45:21;15.00;81.40
14873;DHT22;7528;48.576;19.122;2022-10-22T21:50:26;15.00;81.60
14873;DHT22;7528;48.576;19.122;2022-10-22T21:55:28;15.00;81.70
14873;DHT22;7528;48.576;19.122;2022-10-22T22:00:35;15.10;81.80
14873;DHT22;7528;48.576;19.122;2022-10-22T22:05:39;15.10;82.20
14873;DHT22;7528;48.576;19.122;2022-10-22T22:10:42;15.20;81.90
14873;DHT22;7528;48.576;19.122;2022-10-22T22:15:44;15.30;81.60
14873;DHT22;7528;48.576;19.122;2022-10-22T22:20:48;15.20;81.70
14873;DHT22;7528;48.576;19.122;2022-10-22T22:25:51;15.20;81.20
14873;DHT22;7528;48.576;19.122;2022-10-22T22:30:53;15.10;81.10
14873;DHT22;7528;48.576;19.122;2022-10-22T22:35:59;15.00;81.30
14873;DHT22;7528;48.576;19.122;2022-10-22T22:41:01;15.00;81.20
14873;DHT22;7528;48.576;19.122;2022-10-22T22:46:06;14.90;81.10
14873;DHT22;7528;48.576;19.122;2022-10-22T22:51:10;14.90;81.20
14873;DHT22;7528;48.576;19.122;2022-10-22T22:56:15;14.80;81.00
14873;DHT22;7528;48.576;19.122;2022-10-22T23:01:19;14.80;80.50
14873;DHT22;7528;48.576;19.122;2022-10-22T23:06:25;14.70;80.30
14873;DHT22;7528;48.576;19.122;2022-10-22T23:11:28;14.60;80.50
14873;DHT22;7528;48.576;19.122;2022-10-22T23:16:32;14.70;80.70
14873;DHT22;7528;48.576;19.122;2022-10-22T23:21:38;14.60;81.30
14873;DHT22;7528;48.576;19.122;2022-10-22T23:26:43;14.50;81.20
14873;DHT22;7528;48.576;19.122;2022-10-22T23:31:46;14.40;82.00
14873;DHT22;7528;48.576;19.122;2022-10-22T23:36:51;14.50;82.90
14873;DHT22;7528;48.576;19.122;2022-10-22T23:41:54;14.50;82.40
14873;DHT22;7528;48.576;19.122;2022-10-22T23:46:57;14.40;82.30
14873;DHT22;7528;48.576;19.122;2022-10-22T23:52:01;14.40;82.70
14873;DHT22;7528;48.576;19.122;2022-10-22T23:57:04;14.30;83.00
